Time;durP1;ratioP1;P1;durP2;ratioP2;P2;SDS_P1;SDS_P2;PMS_P1;PMS_P2;Temp;Humidity;BMP_temperature;BMP_pressure;BME280_temperature;BME280_humidity;BME280_pressure;Samples;Min_cycle;Max_cycle;Signal;HPM_P1;HPM_P2
2021/11/19 00:00:40;;;;;;;18.48;9.85;;;;;;;6.91;82.85;99632.70;4356987;80;21412;-83
2021/11/19 00:06:43;;;;;;;19.12;9.23;;;;;;;6.88;82.90;99619.76;4342139;80;21002;-82
2021/11/19 00:12:44;;;;;;;20.62;9.48;;;;;;;6.84;82.96;99616.69;4327663;81;22161;-83
2021/11/19 00:18:46;;;;;;;16.73;8.30;;;;;;;6.78;82.99;99616.08;4328532;81;21051;-83
2021/11/19 00:24:49;;;;;;;17.35;8.75;;;;;;;6.72;83.01;99630.26;4331532;81;21098;-83
2021/11/19 00:30:50;;;;;;;12.68;7.40;;;;;;;6.73;83.17;99623.12;4322403;81;21054;-82
2021/11/19 00:36:55;;;;;;;15.60;8.40;;;;;;;6.74;83.04;99630.14;4329645;81;21454;-83
2021/11/19 00:42:55;;;;;;;15.43;8.33;;;;;;;6.77;83.05;99628.66;4326678;81;21634;-83
2021/11/19 00:48:56;;;;;;;18.80;8.60;;;;;;;6.79;82.90;99621.77;4328109;81;21033;-83
2021/11/19 00:54:58;;;;;;;16.55;8.50;;;;;;;6.79;82.92;99612.81;4330771;81;20984;-83
2021/11/19 01:01:05;;;;;;;21.30;9.55;;;;;;;6.80;82.91;99612.47;4339543;81;21110;-83
2021/11/19 01:07:07;;;;;;;;;;;;;;;6.80;82.81;99591.25;4325104;81;21069;-83
2021/11/19 01:13:10;;;;;;;12.23;6.78;;;;;;;6.80;83.17;99584.45;4318301;81;20181;-84
2021/11/19 01:19:25;;;;;;;13.03;6.50;;;;;;;6.88;82.74;99580.30;4325380;81;21090;-82
2021/11/19 01:25:31;;;;;;;14.45;6.45;;;;;;;6.91;83.16;99582.34;4331224;81;21109;-84
2021/11/19 01:31:47;;;;;;;13.85;5.47;;;;;;;6.90;83.35;99563.08;4333516;81;21503;-83
2021/11/19 01:37:56;;;;;;;11.22;5.65;;;;;;;6.90;83.24;99580.77;4331030;81;21034;-83
2021/11/19 01:44:26;;;;;;;10.63;5.62;;;;;;;6.92;83.32;99577.70;4331607;81;21019;-83
2021/11/19 01:50:35;;;;;;;10.05;5.62;;;;;;;6.92;83.34;99562.73;4299688;81;21032;-84
2021/11/19 01:57:01;;;;;;;17.02;6.67;;;;;;;6.92;83.23;99569.55;4330473;81;21027;-83
2021/11/19 02:03:04;;;;;;;13.80;6.50;;;;;;;6.93;83.26;99580.64;4327562;81;21013;-83
2021/11/19 02:09:13;;;;;;;9.78;6.28;;;;;;;6.93;83.26;99563.77;4316408;81;21053;-83
2021/11/19 02:15:24;;;;;;;15.93;7.87;;;;;;;6.93;83.31;99558.87;4344949;80;21096;-83
2021/11/19 02:21:49;;;;;;;14.30;7.65;;;;;;;6.92;83.37;99547.19;4344482;80;21705;-84
2021/11/19 02:27:56;;;;;;;18.12;8.33;;;;;;;6.91;83.37;99543.44;4343829;80;21099;-82
2021/11/19 02:34:03;;;;;;;13.65;7.53;;;;;;;6.90;83.42;99534.50;4349363;80;21065;-84
2021/11/19 02:40:13;;;;;;;17.23;8.40;;;;;;;6.92;83.44;99526.00;4348176;80;21046;-81
2021/11/19 02:46:22;;;;;;;16.82;7.92;;;;;;;6.92;83.55;99528.13;4282618;81;21605;-84
2021/11/19 02:52:26;;;;;;;;;;;;;;;6.92;83.67;99535.52;4277943;81;21078;-83
2021/11/19 02:58:34;;;;;;;16.05;8.30;;;;;;;6.91;83.78;99527.91;4336497;80;20141;-83
2021/11/19 03:04:47;;;;;;;15.53;9.18;;;;;;;6.89;83.81;99504.31;4335393;80;22192;-83
2021/11/19 03:10:55;;;;;;;16.07;9.30;;;;;;;6.87;83.95;99513.41;4320789;80;21380;-83
2021/11/19 03:16:55;;;;;;;16.67;8.48;;;;;;;6.89;84.18;99515.20;4322173;81;21022;-83
2021/11/19 03:22:58;;;;;;;17.90;9.40;;;;;;;6.86;84.37;99504.99;4320470;80;21059;-82
2021/11/19 03:29:02;;;;;;;15.05;8.30;;;;;;;6.85;84.57;99506.13;4327665;80;21080;-82
2021/11/19 03:35:08;;;;;;;15.30;9.25;;;;;;;6.85;84.99;99489.80;4335620;81;21031;-84
2021/11/19 03:41:12;;;;;;;16.23;8.95;;;;;;;6.84;84.94;99475.98;4342488;81;21066;-83
2021/11/19 03:47:23;;;;;;;13.03;7.53;;;;;;;6.84;85.04;99469.73;4310578;81;20998;-82
2021/11/19 03:53:27;;;;;;;13.95;7.90;;;;;;;6.85;85.24;99466.67;4336952;81;21117;-82
2021/11/19 03:59:29;;;;;;;11.50;6.92;;;;;;;6.83;85.51;99467.57;4336505;81;21517;-83
2021/11/19 04:05:31;;;;;;;15.08;8.13;;;;;;;6.82;85.63;99473.35;4337861;81;21067;-83
2021/11/19 04:11:33;;;;;;;16.52;8.18;;;;;;;6.83;85.79;99468.93;4455571;78;21061;-83
2021/11/19 04:17:35;;;;;;;13.60;7.12;;;;;;;6.84;86.02;99467.81;4458673;78;21945;-82
2021/11/19 04:23:37;;;;;;;11.80;7.67;;;;;;;6.86;86.16;99464.17;4450720;78;21617;-83
2021/11/19 04:29:39;;;;;;;11.57;7.12;;;;;;;6.89;86.23;99466.21;4459490;78;21045;-82
2021/11/19 04:35:49;;;;;;;10.95;6.67;;;;;;;6.94;86.37;99469.30;4464651;78;21006;-83
2021/11/19 04:41:52;;;;;;;11.80;6.37;;;;;;;6.98;86.52;99470.20;4453306;78;20999;-83
2021/11/19 04:47:54;;;;;;;11.08;7.10;;;;;;;6.94;86.80;99461.14;4451048;78;21026;-82
2021/11/19 04:53:56;;;;;;;15.83;8.08;;;;;;;6.88;87.14;99454.30;4455698;78;20987;-83
2021/11/19 04:59:57;;;;;;;13.50;8.50;;;;;;;6.83;87.57;99457.27;4452113;78;21043;-83
2021/11/19 05:06:00;;;;;;;14.05;8.10;;;;;;;6.75;88.21;99443.20;4434794;78;21066;-82
2021/11/19 05:12:07;;;;;;;14.07;8.48;;;;;;;6.69;88.49;99447.28;4449124;78;21022;-82
2021/11/19 05:18:11;;;;;;;16.42;9.53;;;;;;;6.65;88.73;99449.07;4453646;78;21066;-83
2021/11/19 05:24:14;;;;;;;21.30;9.88;;;;;;;6.63;89.46;99460.84;4458917;78;21048;-84
2021/11/19 05:30:17;;;;;;;19.23;10.13;;;;;;;6.62;89.71;99449.19;4449240;78;21432;-83
2021/11/19 05:36:21;;;;;;;11.25;7.53;;;;;;;6.61;89.88;99453.02;4451767;78;21038;-83
2021/11/19 05:42:22;;;;;;;13.83;8.45;;;;;;;6.63;90.15;99456.21;4454639;78;21022;-83
2021/11/19 05:48:23;;;;;;;12.15;8.68;;;;;;;6.66;90.40;99463.70;4456226;77;20971;-83
2021/11/19 05:54:30;;;;;;;12.58;8.50;;;;;;;6.64;90.51;99461.88;4459203;78;20998;-83
2021/11/19 06:00:49;;;;;;;18.27;9.25;;;;;;;6.66;90.57;99471.05;4452801;78;21042;-83
2021/11/19 06:06:56;;;;;;;14.33;8.60;;;;;;;6.64;90.96;99466.53;4438264;78;21571;-83
2021/11/19 06:13:20;;;;;;;13.55;9.20;;;;;;;6.65;91.01;99468.11;4443946;78;21026;-84
2021/11/19 06:19:26;;;;;;;15.32;9.13;;;;;;;6.65;91.26;99472.20;4444822;78;20963;-84
2021/11/19 06:25:31;;;;;;;13.43;7.85;;;;;;;6.65;91.27;99484.44;4450759;78;21038;-83
2021/11/19 06:31:38;;;;;;;18.65;8.78;;;;;;;6.65;91.65;99494.77;4449637;78;21010;-83
2021/11/19 06:37:40;;;;;;;14.87;9.53;;;;;;;6.65;92.09;99506.20;4445669;78;21069;-84
2021/11/19 06:43:44;;;;;;;14.90;8.70;;;;;;;6.65;92.18;99511.64;4447372;78;21108;-84
2021/11/19 06:49:49;;;;;;;16.67;9.80;;;;;;;6.65;92.67;99507.56;4133803;82;42249;-83
2021/11/19 06:55:58;;;;;;;15.88;9.68;;;;;;;6.68;93.18;99517.77;4067309;86;21082;-84
2021/11/19 07:02:07;;;;;;;22.42;12.20;;;;;;;6.68;93.38;99516.41;4049859;86;21031;-85
2021/11/19 07:08:12;;;;;;;20.55;12.03;;;;;;;6.71;93.74;99519.26;4040791;85;21222;-82
2021/11/19 07:14:15;;;;;;;15.72;9.80;;;;;;;6.74;93.94;99518.58;4011618;87;21051;-85
2021/11/19 07:20:22;;;;;;;16.82;10.45;;;;;;;6.78;94.15;99511.32;4025966;87;21089;-85
2021/11/19 07:26:26;;;;;;;14.73;9.63;;;;;;;6.83;94.42;99521.22;4029151;87;22044;-84
2021/11/19 07:32:28;;;;;;;15.30;9.73;;;;;;;6.88;94.67;99531.87;3997983;87;21062;-85
2021/11/19 07:38:49;;;;;;;15.65;9.25;;;;;;;6.91;94.71;99525.75;4024907;87;21107;-83
2021/11/19 07:44:55;;;;;;;13.85;8.63;;;;;;;6.93;95.06;99529.73;3983228;87;21110;-84
2021/11/19 07:51:13;;;;;;;16.25;10.88;;;;;;;6.98;95.23;99520.00;3959513;88;21075;-84
2021/11/19 07:57:14;;;;;;;14.90;8.78;;;;;;;7.02;95.39;99517.38;4000845;87;21414;-81
2021/11/19 08:03:16;;;;;;;13.32;7.67;;;;;;;7.05;95.62;99516.14;3999743;87;21177;-81
2021/11/19 08:09:19;;;;;;;14.47;9.28;;;;;;;7.09;96.43;99511.63;3989259;87;21130;-82
2021/11/19 08:15:26;;;;;;;18.40;9.48;;;;;;;7.10;96.18;99498.22;4028988;87;21075;-82
2021/11/19 08:21:30;;;;;;;12.18;6.80;;;;;;;7.13;96.35;99507.07;4014514;87;22137;-81
2021/11/19 08:27:37;;;;;;;11.57;6.87;;;;;;;7.17;96.69;99524.30;4018704;87;21602;-82
2021/11/19 08:33:39;;;;;;;11.20;6.42;;;;;;;7.23;97.78;99531.14;3987027;88;21858;-84
2021/11/19 08:39:46;;;;;;;15.10;9.10;;;;;;;7.23;96.80;99554.28;4054507;86;21111;-84
2021/11/19 08:45:48;;;;;;;;;;;;;;;7.27;97.28;99548.94;4050611;86;21051;-84
2021/11/19 08:51:50;;;;;;;11.03;7.55;;;;;;;7.29;97.27;99551.56;4054738;86;20143;-83
2021/11/19 08:57:58;;;;;;;14.10;7.65;;;;;;;7.32;97.29;99553.61;4056938;86;21071;-84
2021/11/19 09:03:59;;;;;;;11.28;7.05;;;;;;;7.38;97.46;99555.52;4059427;86;21116;-82
2021/11/19 09:10:07;;;;;;;13.60;9.20;;;;;;;7.43;97.45;99551.22;4053065;86;21575;-84
2021/11/19 09:16:11;;;;;;;10.35;7.20;;;;;;;7.46;97.60;99550.53;4051578;86;21217;-85
2021/11/19 09:22:38;;;;;;;11.53;7.67;;;;;;;7.51;97.81;99547.03;4055200;86;21760;-83
2021/11/19 09:28:44;;;;;;;8.23;6.03;;;;;;;7.54;97.94;99554.52;4052918;86;21043;-84
2021/11/19 09:34:51;;;;;;;13.98;8.75;;;;;;;7.60;98.22;99557.23;4055636;86;21043;-83
2021/11/19 09:41:27;;;;;;;14.75;7.80;;;;;;;7.64;98.36;99550.54;4055685;86;21671;-84
2021/11/19 09:48:14;;;;;;;13.45;8.40;;;;;;;7.67;98.42;99545.77;4054089;86;21035;-85
2021/11/19 09:55:01;;;;;;;14.00;8.20;;;;;;;7.71;98.38;99566.54;3988239;86;21094;-84
2021/11/19 10:01:48;;;;;;;19.98;10.23;;;;;;;7.75;98.34;99561.98;4050244;86;21098;-84
2021/11/19 10:08:23;;;;;;;12.37;7.92;;;;;;;7.73;98.38;99545.20;4050363;86;21106;-84
2021/11/19 10:15:06;;;;;;;16.70;10.93;;;;;;;7.83;98.33;99549.36;4026366;87;21126;-84
2021/11/19 10:21:17;;;;;;;12.47;7.67;;;;;;;7.90;98.49;99545.50;3961147;87;21122;-84
2021/11/19 10:27:28;;;;;;;11.33;7.80;;;;;;;7.94;98.54;99530.03;4018811;87;21149;-85
2021/11/19 10:33:48;;;;;;;17.35;8.90;;;;;;;7.99;98.59;99517.53;4019539;87;21079;-84
2021/11/19 10:40:48;;;;;;;15.68;8.43;;;;;;;8.09;98.80;99506.15;4019772;87;21035;-83
2021/11/19 10:47:18;;;;;;;11.43;7.05;;;;;;;8.16;98.61;99493.30;4052187;86;21547;-84
2021/11/19 10:54:11;;;;;;;12.10;7.53;;;;;;;8.22;98.63;99488.62;4011863;87;21077;-85
2021/11/19 11:00:49;;;;;;;11.33;7.33;;;;;;;8.29;98.70;99487.46;4046476;86;22313;-84
2021/11/19 11:06:57;;;;;;;13.35;9.50;;;;;;;8.34;98.54;99487.78;4029632;86;21252;-84
2021/11/19 11:12:58;;;;;;;20.70;12.58;;;;;;;8.34;98.69;99475.50;3963062;88;21084;-85
2021/11/19 11:19:15;;;;;;;20.45;14.33;;;;;;;8.33;98.97;99480.75;3962313;88;21069;-85
2021/11/19 11:25:34;;;;;;;18.27;13.25;;;;;;;8.32;99.03;99479.95;3960181;88;21069;-86
2021/11/19 11:31:50;;;;;;;16.20;11.00;;;;;;;8.33;99.27;99479.38;3958141;88;21053;-84
2021/11/19 11:38:31;;;;;;;19.40;12.33;;;;;;;8.33;100.00;99475.30;3960995;88;21088;-85
2021/11/19 11:44:46;;;;;;;16.27;10.55;;;;;;;8.28;99.56;99469.52;4054786;86;21095;-84
2021/11/19 11:51:32;;;;;;;17.42;13.08;;;;;;;8.28;99.61;99468.72;4057885;86;21031;-84
2021/11/19 11:57:57;;;;;;;26.50;17.67;;;;;;;8.29;99.72;99472.46;4021785;86;21085;-84
2021/11/19 12:04:09;;;;;;;29.55;19.25;;;;;;;8.29;100.00;99464.28;4088188;85;21060;-84
2021/11/19 12:10:29;;;;;;;23.35;15.40;;;;;;;8.33;100.00;99467.11;4081617;85;21703;-84
2021/11/19 12:17:09;;;;;;;21.82;15.43;;;;;;;8.32;100.00;99459.48;4092129;85;21086;-85
2021/11/19 12:24:01;;;;;;;15.98;11.12;;;;;;;8.34;100.00;99461.30;4090928;85;21136;-85
2021/11/19 12:30:53;;;;;;;22.70;12.98;;;;;;;8.39;100.00;99465.71;4090905;85;21081;-84
2021/11/19 12:37:23;;;;;;;21.65;15.38;;;;;;;8.37;100.00;99476.97;3958829;88;21126;-84
2021/11/19 12:44:00;;;;;;;17.37;12.43;;;;;;;8.34;100.00;99479.03;4089063;85;21626;-84
2021/11/19 12:50:16;;;;;;;22.15;14.55;;;;;;;8.36;100.00;99465.05;4092760;85;21062;-85
2021/11/19 12:56:28;;;;;;;23.77;17.15;;;;;;;8.37;100.00;99462.53;4090543;85;21586;-82
2021/11/19 13:02:39;;;;;;;23.42;15.00;;;;;;;8.34;100.00;99457.22;4092309;85;21106;-83
2021/11/19 13:09:06;;;;;;;27.00;17.15;;;;;;;8.35;100.00;99463.47;4090116;85;21053;-82
2021/11/19 13:15:35;;;;;;;22.82;15.10;;;;;;;8.35;100.00;99462.11;4136471;84;21047;-82
2021/11/19 13:21:41;;;;;;;21.80;15.37;;;;;;;8.36;100.00;99459.03;4148277;84;21613;-83
2021/11/19 13:27:47;;;;;;;23.32;14.98;;;;;;;8.38;100.00;99453.22;4034712;84;9999770;-82
2021/11/19 13:34:08;;;;;;;21.82;14.65;;;;;;;8.41;100.00;99462.07;4089387;85;21072;-82
2021/11/19 13:40:36;;;;;;;22.35;13.80;;;;;;;8.47;100.00;99462.03;4076628;86;20984;-82
2021/11/19 13:46:43;;;;;;;20.88;14.50;;;;;;;8.51;100.00;99457.45;4152886;84;22230;-82
2021/11/19 13:52:56;;;;;;;19.92;13.18;;;;;;;8.54;100.00;99468.47;4148226;84;21018;-82
2021/11/19 13:59:14;;;;;;;21.50;13.30;;;;;;;8.57;100.00;99467.77;4147691;84;21160;-82
2021/11/19 14:05:25;;;;;;;19.50;13.85;;;;;;;8.61;100.00;99486.97;4082957;84;21047;-82
2021/11/19 14:11:30;;;;;;;18.75;12.93;;;;;;;8.63;100.00;99482.73;4164203;84;21013;-83
2021/11/19 14:17:41;;;;;;;25.57;13.80;;;;;;;8.64;100.00;99488.44;4166903;84;21089;-82
2021/11/19 14:23:44;;;;;;;20.17;13.13;;;;;;;8.63;100.00;99492.28;4167073;84;21021;-82
2021/11/19 14:29:59;;;;;;;17.20;12.85;;;;;;;8.64;100.00;99487.63;4164696;84;21046;-83
2021/11/19 14:36:23;;;;;;;25.45;17.92;;;;;;;8.61;100.00;99490.50;4167570;84;21085;-82
2021/11/19 14:42:29;;;;;;;20.23;14.68;;;;;;;8.61;100.00;99488.33;4163637;84;21069;-83
2021/11/19 14:48:42;;;;;;;18.00;12.60;;;;;;;8.59;100.00;99485.16;4164164;84;21033;-81
2021/11/19 14:54:49;;;;;;;25.85;15.23;;;;;;;8.58;100.00;99487.67;4163086;84;21085;-84
2021/11/19 15:00:59;;;;;;;19.30;13.98;;;;;;;8.61;100.00;99492.42;4167255;84;21073;-82
2021/11/19 15:07:20;;;;;;;19.15;13.65;;;;;;;8.61;100.00;99489.14;4070272;86;21593;-82
2021/11/19 15:13:30;;;;;;;20.20;14.58;;;;;;;8.60;100.00;99479.34;4136145;84;22122;-83
2021/11/19 15:19:49;;;;;;;25.43;16.00;;;;;;;8.58;100.00;99477.52;4132384;84;21093;-83
2021/11/19 15:25:51;;;;;;;20.90;14.20;;;;;;;8.58;100.00;99487.67;4143553;84;21018;-83
2021/11/19 15:32:15;;;;;;;26.80;16.55;;;;;;;8.56;100.00;99483.92;4140414;84;21072;-84
2021/11/19 15:38:31;;;;;;;23.47;16.00;;;;;;;8.51;100.00;99480.64;4137423;84;21515;-82
2021/11/19 15:44:37;;;;;;;25.23;16.42;;;;;;;8.49;100.00;99474.77;4138366;84;21145;-83
2021/11/19 15:50:39;;;;;;;25.17;16.87;;;;;;;8.48;100.00;99479.42;4134520;84;21042;-84
2021/11/19 15:56:58;;;;;;;25.60;15.85;;;;;;;8.49;100.00;99480.22;4137740;84;21162;-83
2021/11/19 16:03:10;;;;;;;25.77;17.05;;;;;;;8.48;100.00;99485.44;4141443;84;21051;-83
2021/11/19 16:09:33;;;;;;;23.52;15.53;;;;;;;8.47;100.00;99486.00;4177382;84;21119;-83
2021/11/19 16:15:37;;;;;;;26.97;16.80;;;;;;;8.50;100.00;99484.53;4149165;84;21079;-82
2021/11/19 16:21:47;;;;;;;29.23;17.12;;;;;;;8.53;100.00;99495.55;4165234;84;20976;-84
2021/11/19 16:27:49;;;;;;;28.23;17.57;;;;;;;8.56;100.00;99493.48;4047148;84;9999789;-83
2021/11/19 16:33:51;;;;;;;26.10;15.40;;;;;;;8.53;100.00;99490.65;4167157;84;21609;-82
2021/11/19 16:39:53;;;;;;;25.40;16.35;;;;;;;8.54;100.00;99489.50;4168553;84;21060;-82
2021/11/19 16:45:56;;;;;;;22.15;15.93;;;;;;;8.58;100.00;99496.63;4160493;84;21527;-83
2021/11/19 16:52:12;;;;;;;23.27;16.17;;;;;;;8.58;100.00;99480.25;4152111;84;21063;-82
2021/11/19 16:58:13;;;;;;;22.77;15.85;;;;;;;8.60;100.00;99480.70;4165137;84;21381;-83
2021/11/19 17:04:16;;;;;;;20.32;14.75;;;;;;;8.58;100.00;99466.61;4169040;84;21076;-83
2021/11/19 17:10:20;;;;;;;21.52;15.05;;;;;;;8.73;100.00;99487.69;4164850;84;21031;-83
2021/11/19 17:16:24;;;;;;;20.77;14.83;;;;;;;8.72;100.00;99487.45;4161707;84;21099;-82
2021/11/19 17:22:25;;;;;;;25.48;17.20;;;;;;;8.73;100.00;99487.69;4165438;84;21036;-82
2021/11/19 17:28:33;;;;;;;23.07;14.98;;;;;;;8.72;100.00;99485.31;4164867;84;21332;-81
2021/11/19 17:34:34;;;;;;;20.60;15.48;;;;;;;8.72;100.00;99494.27;4165361;84;21942;-83
2021/11/19 17:40:38;;;;;;;21.15;15.03;;;;;;;8.75;100.00;99499.06;4164807;84;21095;-84
2021/11/19 17:46:48;;;;;;;21.65;13.78;;;;;;;8.75;100.00;99496.89;4167150;84;21016;-83
2021/11/19 17:52:50;;;;;;;23.87;16.27;;;;;;;8.72;100.00;99490.18;4164645;84;21071;-82
2021/11/19 17:58:52;;;;;;;19.77;14.68;;;;;;;8.70;100.00;99492.48;4167716;84;21029;-82
2021/11/19 18:04:54;;;;;;;21.87;15.75;;;;;;;8.67;100.00;99486.93;4142620;84;21040;-83
2021/11/19 18:10:57;;;;;;;21.00;14.75;;;;;;;8.64;100.00;99488.44;4169997;84;21008;-81
2021/11/19 18:17:03;;;;;;;20.97;15.28;;;;;;;8.62;100.00;99478.99;4167882;84;21100;-83
2021/11/19 18:23:06;;;;;;;20.90;16.02;;;;;;;8.59;100.00;99477.77;4159812;84;21055;-83
2021/11/19 18:29:07;;;;;;;25.32;16.70;;;;;;;8.58;100.00;99489.80;4043349;84;10000487;-81
2021/11/19 18:35:17;;;;;;;23.07;15.88;;;;;;;8.56;100.00;99486.66;4121906;85;21064;-81
2021/11/19 18:41:25;;;;;;;24.18;16.23;;;;;;;8.58;100.00;99499.36;4172369;85;21095;-84
2021/11/19 18:47:29;;;;;;;22.42;16.50;;;;;;;8.57;100.00;99497.78;4172489;85;20976;-82
2021/11/19 18:53:31;;;;;;;28.07;18.32;;;;;;;8.54;100.00;99494.39;4159925;84;21608;-83
2021/11/19 18:59:32;;;;;;;29.12;18.15;;;;;;;8.51;100.00;99489.63;4159572;84;20996;-84
2021/11/19 19:05:36;;;;;;;22.93;17.17;;;;;;;8.51;100.00;99486.10;4167747;84;22116;-83
2021/11/19 19:11:43;;;;;;;22.40;17.25;;;;;;;8.51;100.00;99495.66;4163845;84;21109;-84
2021/11/19 19:17:46;;;;;;;25.05;17.23;;;;;;;8.51;100.00;99501.11;4159969;84;21721;-82
2021/11/19 19:23:48;;;;;;;30.72;17.95;;;;;;;8.52;100.00;99502.12;4163315;84;20997;-81
2021/11/19 19:29:53;;;;;;;22.82;16.50;;;;;;;8.51;100.00;99494.29;4166227;84;21001;-84
2021/11/19 19:36:01;;;;;;;26.97;17.42;;;;;;;8.51;100.00;99496.45;4155838;84;21056;-82
2021/11/19 19:42:10;;;;;;;25.60;16.20;;;;;;;8.50;100.00;99498.17;4160954;84;21478;-84
2021/11/19 19:48:21;;;;;;;26.50;18.07;;;;;;;8.52;100.00;99502.12;4167052;84;21946;-83
2021/11/19 19:54:30;;;;;;;23.32;17.27;;;;;;;8.54;100.00;99502.58;4157144;84;21037;-83
2021/11/19 20:00:33;;;;;;;20.80;14.55;;;;;;;8.57;100.00;99507.89;4170048;84;21010;-84
2021/11/19 20:06:36;;;;;;;27.70;16.25;;;;;;;8.58;100.00;99504.05;4159782;84;21022;-84
2021/11/19 20:12:43;;;;;;;24.00;16.12;;;;;;;8.58;100.00;99511.64;4162608;84;21515;-84
2021/11/19 20:18:44;;;;;;;25.08;17.17;;;;;;;8.57;100.00;99502.44;4167338;84;21103;-85
2021/11/19 20:24:49;;;;;;;23.87;17.05;;;;;;;8.57;100.00;99494.25;4167963;84;21167;-84
2021/11/19 20:30:55;;;;;;;27.17;18.02;;;;;;;8.59;100.00;99495.50;4051098;84;9999677;-83
2021/11/19 20:37:01;;;;;;;24.43;17.07;;;;;;;8.58;100.00;99489.03;4167135;84;21067;-84
2021/11/19 20:43:03;;;;;;;27.25;19.05;;;;;;;8.58;100.00;99496.63;4172100;83;21016;-84
2021/11/19 20:49:06;;;;;;;30.57;19.70;;;;;;;8.58;100.00;99496.63;4169477;84;20989;-85
2021/11/19 20:55:10;;;;;;;25.10;17.85;;;;;;;8.61;100.00;99495.95;4152747;84;21111;-83
2021/11/19 21:01:24;;;;;;;28.07;18.70;;;;;;;8.59;100.00;99480.50;4167503;84;21047;-84
2021/11/19 21:07:26;;;;;;;29.70;19.62;;;;;;;8.63;100.00;99490.15;4166165;84;21122;-84
2021/11/19 21:13:28;;;;;;;29.95;21.62;;;;;;;8.61;100.00;99492.42;4168394;84;21055;-84
2021/11/19 21:19:29;;;;;;;29.45;21.50;;;;;;;8.60;100.00;99500.38;4166236;84;22364;-84
2021/11/19 21:25:36;;;;;;;29.42;20.60;;;;;;;8.60;100.00;99497.64;4166448;84;21067;-85
2021/11/19 21:31:41;;;;;;;;;;;;;;;8.61;100.00;99501.41;4170025;84;21027;-84
2021/11/19 21:37:42;;;;;;;30.17;19.35;;;;;;;8.59;100.00;99515.17;4149227;84;20171;-83
2021/11/19 21:43:47;;;;;;;33.50;20.75;;;;;;;8.59;100.00;99511.88;4169663;84;21390;-84
2021/11/19 21:49:52;;;;;;;30.40;20.43;;;;;;;8.59;100.00;99513.80;4169398;84;21091;-83
2021/11/19 21:56:47;;;;;;;38.42;22.30;;;;;;;8.57;100.00;99510.06;4169585;84;21532;-84
2021/11/19 22:02:25;;;;;;;33.83;22.82;;;;;;;8.59;100.00;99499.59;4153516;84;21019;-85
2021/11/19 22:08:27;;;;;;;34.75;23.18;;;;;;;8.58;100.00;99510.27;4166187;84;21031;-84
2021/11/19 22:14:28;;;;;;;33.05;21.70;;;;;;;8.60;100.00;99513.45;4168316;84;21107;-85
2021/11/19 22:20:35;;;;;;;33.98;22.22;;;;;;;8.61;100.00;99514.26;4170158;84;21086;-84
2021/11/19 22:26:38;;;;;;;30.68;20.50;;;;;;;8.62;100.00;99509.02;4170557;84;21053;-84
2021/11/19 22:32:39;;;;;;;31.82;21.17;;;;;;;8.62;100.00;99512.55;4166921;84;21133;-84
2021/11/19 22:38:53;;;;;;;31.82;19.80;;;;;;;8.63;100.00;99516.08;4168929;84;21059;-84
2021/11/19 22:44:57;;;;;;;23.27;16.52;;;;;;;8.71;100.00;99514.53;4170165;84;21039;-83
2021/11/19 22:51:14;;;;;;;22.85;16.40;;;;;;;8.72;100.00;99513.38;4162860;84;21119;-83
2021/11/19 22:57:20;;;;;;;25.05;16.12;;;;;;;8.77;100.00;99504.94;4167119;84;22096;-83
2021/11/19 23:03:23;;;;;;;29.70;16.83;;;;;;;8.82;100.00;99501.16;4168584;84;21060;-83
2021/11/19 23:09:33;;;;;;;24.55;15.68;;;;;;;8.86;100.00;99519.80;4168914;84;21575;-83
2021/11/19 23:15:40;;;;;;;25.25;14.87;;;;;;;8.92;100.00;99518.39;4170641;84;21619;-83
2021/11/19 23:21:50;;;;;;;23.60;15.58;;;;;;;8.96;100.00;99508.34;4169612;84;21075;-84
2021/11/19 23:27:55;;;;;;;25.68;14.87;;;;;;;9.00;100.00;99492.86;4169016;84;21596;-83
2021/11/19 23:34:02;;;;;;;24.60;14.58;;;;;;;9.04;100.00;99475.41;4168418;84;21059;-84
2021/11/19 23:40:08;;;;;;;22.27;13.62;;;;;;;9.05;100.00;99483.05;4172436;84;21028;-83
2021/11/19 23:46:18;;;;;;;16.23;11.80;;;;;;;9.04;100.00;99483.61;4166149;84;21092;-83
2021/11/19 23:52:24;;;;;;;18.30;12.78;;;;;;;9.03;100.00;99483.40;4169023;84;21099;-83
2021/11/19 23:58:28;;;;;;;16.27;12.03;;;;;;;9.04;100.00;99478.70;4169058;84;21115;-85
